createdAt,value
2018-12-06T00:00:53.643Z,41.20
2018-12-06T00:03:23.555Z,39.90
2018-12-06T00:05:53.346Z,31.57
2018-12-06T00:08:22.917Z,25.60
2018-12-06T00:10:52.627Z,24.13
2018-12-06T00:13:22.515Z,19.40
2018-12-06T00:15:52.717Z,20.67
2018-12-06T00:18:22.609Z,27.80
2018-12-06T00:20:52.474Z,28.03
2018-12-06T00:23:22.391Z,31.37
2018-12-06T00:25:52.376Z,23.43
2018-12-06T00:28:22.321Z,25.80
2018-12-06T00:30:53.401Z,24.50
2018-12-06T00:33:23.458Z,25.40
2018-12-06T00:35:53.499Z,20.83
2018-12-06T00:38:23.668Z,23.83
2018-12-06T00:40:53.392Z,22.87
2018-12-06T00:43:23.018Z,28.17
2018-12-06T00:45:53.050Z,25.20
2018-12-06T00:48:22.798Z,23.73
2018-12-06T00:50:52.212Z,23.93
2018-12-06T00:53:22.048Z,23.37
2018-12-06T00:55:51.497Z,25.73
2018-12-06T00:58:20.860Z,29.67
2018-12-06T01:00:50.580Z,24.17
2018-12-06T01:03:20.648Z,23.37
2018-12-06T01:05:50.182Z,22.47
2018-12-06T01:08:19.472Z,23.07
2018-12-06T01:10:48.953Z,23.67
2018-12-06T01:13:18.293Z,24.10
2018-12-06T01:15:48.346Z,23.30
2018-12-06T01:18:17.682Z,22.43
2018-12-06T01:20:47.330Z,29.13
2018-12-06T01:23:16.811Z,24.57
2018-12-06T01:25:46.292Z,27.40
2018-12-06T01:28:16.062Z,25.73
2018-12-06T01:30:45.548Z,25.70
2018-12-06T01:33:15.171Z,22.87
2018-12-06T01:35:44.812Z,24.13
2018-12-06T01:38:14.284Z,26.83
2018-12-06T01:40:43.604Z,27.57
2018-12-06T01:43:13.300Z,24.43
2018-12-06T01:45:42.858Z,20.97
2018-12-06T01:48:12.875Z,23.90
2018-12-06T01:50:42.502Z,32.03
2018-12-06T01:53:11.905Z,22.40
2018-12-06T01:55:41.520Z,26.27
2018-12-06T01:58:10.984Z,32.63
2018-12-06T02:00:40.814Z,36.90
2018-12-06T02:03:10.362Z,27.10
2018-12-06T02:05:39.808Z,28.70
2018-12-06T02:08:09.142Z,37.77
2018-12-06T02:10:38.656Z,31.40
2018-12-06T02:13:08.133Z,26.03
2018-12-06T02:15:37.804Z,20.53
2018-12-06T02:18:07.154Z,31.63
2018-12-06T02:20:36.602Z,32.13
2018-12-06T02:23:06.151Z,31.80
2018-12-06T02:25:35.552Z,24.87
2018-12-06T02:28:05.339Z,23.63
2018-12-06T02:30:34.931Z,20.90
2018-12-06T02:33:04.919Z,20.07
2018-12-06T02:35:34.541Z,17.47
2018-12-06T02:38:03.956Z,17.17
2018-12-06T02:40:34.915Z,17.93
2018-12-06T02:43:04.430Z,20.60
2018-12-06T02:45:34.115Z,17.57
2018-12-06T02:48:03.693Z,19.03
2018-12-06T02:50:33.903Z,16.83
2018-12-06T02:53:03.466Z,19.07
2018-12-06T02:55:32.883Z,17.20
2018-12-06T02:58:02.281Z,16.00
2018-12-06T03:00:31.931Z,16.70
2018-12-06T03:03:01.553Z,17.50
2018-12-06T03:05:31.203Z,17.67
2018-12-06T03:08:00.876Z,17.40
2018-12-06T03:10:30.282Z,17.07
2018-12-06T03:12:59.664Z,17.33
2018-12-06T03:15:29.248Z,18.23
2018-12-06T03:17:58.946Z,17.43
2018-12-06T03:20:28.900Z,18.17
2018-12-06T03:22:58.224Z,17.10
2018-12-06T03:25:27.821Z,16.40
2018-12-06T03:27:57.302Z,19.33
2018-12-06T03:30:27.165Z,16.93
2018-12-06T03:32:56.575Z,14.77
2018-12-06T03:35:26.092Z,17.60
2018-12-06T03:37:55.511Z,16.17
2018-12-06T03:40:24.943Z,15.43
2018-12-06T03:42:54.312Z,16.73
2018-12-06T03:45:24.084Z,15.47
2018-12-06T03:47:53.529Z,16.17
2018-12-06T03:50:23.133Z,17.53
2018-12-06T03:52:52.820Z,17.27
2018-12-06T03:55:22.450Z,14.30
2018-12-06T03:57:52.485Z,15.10
2018-12-06T04:00:22.171Z,15.67
2018-12-06T04:02:51.823Z,17.07
2018-12-06T04:05:21.217Z,15.50
2018-12-06T04:07:51.393Z,14.10
2018-12-06T04:10:22.950Z,14.53
2018-12-06T04:12:52.560Z,13.20
2018-12-06T04:15:22.010Z,15.03
2018-12-06T04:17:51.664Z,14.27
2018-12-06T04:20:21.184Z,14.73
2018-12-06T04:22:51.738Z,15.77
2018-12-06T04:25:21.727Z,16.13
2018-12-06T04:27:51.340Z,14.30
2018-12-06T04:30:20.871Z,14.47
2018-12-06T04:32:50.297Z,15.67
2018-12-06T04:35:20.078Z,13.73
2018-12-06T04:37:49.457Z,13.80
2018-12-06T04:40:19.170Z,14.90
2018-12-06T04:42:48.624Z,13.77
2018-12-06T04:45:18.197Z,12.47
2018-12-06T04:47:47.727Z,14.07
2018-12-06T04:50:17.440Z,14.87
2018-12-06T04:52:47.427Z,15.17
2018-12-06T04:55:17.428Z,13.17
2018-12-06T04:57:47.268Z,13.53
2018-12-06T05:00:16.862Z,12.03
2018-12-06T05:02:46.764Z,13.97
2018-12-06T05:05:16.578Z,12.03
2018-12-06T05:07:46.292Z,12.93
2018-12-06T05:10:15.749Z,10.10
2018-12-06T05:12:45.351Z,13.80
2018-12-06T05:15:14.989Z,12.27
2018-12-06T05:17:44.407Z,11.17
2018-12-06T05:20:14.328Z,17.47
2018-12-06T05:22:44.391Z,13.00
2018-12-06T05:25:14.267Z,11.30
2018-12-06T05:27:44.100Z,9.97
2018-12-06T05:30:13.554Z,10.77
2018-12-06T05:32:43.179Z,11.23
2018-12-06T05:35:12.670Z,9.60
2018-12-06T05:37:42.267Z,12.20
2018-12-06T05:40:11.658Z,11.17
2018-12-06T05:42:41.240Z,10.73
2018-12-06T05:45:11.428Z,12.20
2018-12-06T05:47:41.166Z,13.53
2018-12-06T05:50:10.212Z,12.63
2018-12-06T05:52:39.812Z,13.17
2018-12-06T05:55:09.474Z,13.87
2018-12-06T05:57:39.372Z,13.23
2018-12-06T06:00:09.158Z,11.77
2018-12-06T06:02:38.692Z,12.63
2018-12-06T06:05:08.393Z,13.47
2018-12-06T06:07:38.088Z,13.00
2018-12-06T06:10:07.710Z,12.43
2018-12-06T06:12:37.236Z,11.10
2018-12-06T06:15:06.988Z,11.10
2018-12-06T06:17:36.852Z,9.87
2018-12-06T06:20:06.492Z,10.20
2018-12-06T06:22:36.064Z,11.03
2018-12-06T06:25:05.765Z,12.00
2018-12-06T06:27:35.350Z,10.57
2018-12-06T06:30:05.406Z,11.87
2018-12-06T06:32:35.099Z,13.37
2018-12-06T06:35:04.855Z,11.97
2018-12-06T06:37:34.379Z,13.27
2018-12-06T06:40:04.322Z,17.40
2018-12-06T06:42:33.982Z,16.20
2018-12-06T06:45:03.680Z,13.20
2018-12-06T06:47:33.183Z,14.47
2018-12-06T06:50:03.834Z,16.03
2018-12-06T06:52:33.413Z,14.50
2018-12-06T06:55:03.552Z,13.87
2018-12-06T06:57:33.213Z,13.53
2018-12-06T07:00:03.000Z,12.93
2018-12-06T07:02:33.181Z,12.13
2018-12-06T07:05:02.826Z,13.87
2018-12-06T07:07:32.403Z,15.97
2018-12-06T07:10:02.112Z,12.63
2018-12-06T07:12:32.544Z,12.67
2018-12-06T07:15:02.376Z,13.93
2018-12-06T07:17:32.020Z,12.73
2018-12-06T07:20:01.772Z,13.53
2018-12-06T07:22:31.482Z,11.23
2018-12-06T07:25:01.182Z,11.60
2018-12-06T07:27:30.994Z,8.83
2018-12-06T07:30:00.470Z,10.60
2018-12-06T07:32:30.145Z,11.63
2018-12-06T07:34:59.613Z,14.27
2018-12-06T07:37:29.137Z,16.17
2018-12-06T07:39:58.735Z,12.37
2018-12-06T07:42:28.236Z,12.80
2018-12-06T07:44:57.813Z,12.67
2018-12-06T07:47:27.099Z,12.43
2018-12-06T07:49:56.652Z,14.23
2018-12-06T07:52:26.333Z,13.30
2018-12-06T07:54:55.839Z,16.67
2018-12-06T07:57:25.391Z,13.97
2018-12-06T07:59:54.997Z,17.50
2018-12-06T08:02:24.483Z,19.33
2018-12-06T08:04:54.377Z,19.73
2018-12-06T08:07:23.894Z,18.47
2018-12-06T08:09:54.005Z,18.60
2018-12-06T08:12:23.773Z,16.00
2018-12-06T08:14:53.222Z,16.73
2018-12-06T08:17:23.289Z,16.90
2018-12-06T08:19:52.739Z,19.23
2018-12-06T08:22:22.525Z,18.23
2018-12-06T08:24:52.390Z,18.17
2018-12-06T08:27:22.440Z,17.47
2018-12-06T08:29:52.190Z,18.37
2018-12-06T08:32:21.745Z,15.70
2018-12-06T08:34:51.182Z,14.67
2018-12-06T08:37:20.846Z,18.47
2018-12-06T08:39:50.429Z,20.03
2018-12-06T08:42:19.961Z,17.20
2018-12-06T08:44:49.430Z,14.90
2018-12-06T08:47:18.792Z,18.33
2018-12-06T08:49:48.387Z,12.40
2018-12-06T08:52:17.706Z,12.70
2018-12-06T08:54:47.562Z,18.77
2018-12-06T08:57:17.720Z,15.30
2018-12-06T08:59:48.100Z,11.67
2018-12-06T09:02:18.050Z,10.73
2018-12-06T09:04:48.213Z,13.10
2018-12-06T09:07:19.128Z,12.33
2018-12-06T09:09:49.146Z,11.60
2018-12-06T09:12:19.221Z,11.27
2018-12-06T09:14:49.448Z,13.50
2018-12-06T09:17:19.721Z,12.40
2018-12-06T09:19:49.715Z,15.20
2018-12-06T09:22:19.721Z,12.63
2018-12-06T09:24:49.823Z,12.03
2018-12-06T09:27:19.983Z,16.30
2018-12-06T09:29:50.057Z,14.97
2018-12-06T09:32:20.137Z,11.47
2018-12-06T09:34:50.115Z,10.53
2018-12-06T09:37:20.251Z,14.53
2018-12-06T09:39:58.061Z,15.50
2018-12-06T09:42:27.987Z,14.47
2018-12-06T09:44:57.940Z,12.27
2018-12-06T09:47:28.023Z,17.47
2018-12-06T09:49:58.116Z,20.30
2018-12-06T09:52:28.162Z,14.20
2018-12-06T09:54:58.270Z,16.20
2018-12-06T09:57:28.166Z,18.83
2018-12-06T09:59:58.246Z,13.93
2018-12-06T10:02:28.224Z,15.07
2018-12-06T10:04:58.366Z,13.97
2018-12-06T10:07:28.502Z,11.17
2018-12-06T10:09:58.784Z,11.30
2018-12-06T10:12:28.912Z,10.63
2018-12-06T10:14:58.867Z,11.73
2018-12-06T10:17:28.928Z,15.17
2018-12-06T10:19:58.868Z,21.23
2018-12-06T10:22:28.959Z,16.77
2018-12-06T10:24:59.077Z,14.33
2018-12-06T10:27:29.344Z,17.67
2018-12-06T10:29:59.577Z,13.83
2018-12-06T10:32:29.571Z,17.67
2018-12-06T10:34:59.745Z,15.10
2018-12-06T10:37:29.803Z,12.17
2018-12-06T10:39:59.661Z,15.13
2018-12-06T10:42:29.825Z,15.77
2018-12-06T10:45:00.873Z,16.10
2018-12-06T10:47:30.776Z,13.77
2018-12-06T10:50:00.887Z,10.97
2018-12-06T10:52:31.051Z,13.40
2018-12-06T10:55:01.051Z,10.37
2018-12-06T10:57:31.311Z,10.50
2018-12-06T11:00:01.611Z,14.00
2018-12-06T11:02:38.081Z,9.50
2018-12-06T11:05:08.106Z,12.23
2018-12-06T11:07:38.266Z,10.77
2018-12-06T11:10:08.788Z,13.60
2018-12-06T11:12:38.915Z,11.83
2018-12-06T11:15:09.262Z,18.30
2018-12-06T11:17:39.358Z,13.80
2018-12-06T11:20:09.372Z,17.07
2018-12-06T11:22:39.349Z,15.43
2018-12-06T11:25:09.160Z,13.23
2018-12-06T11:27:38.972Z,17.73
2018-12-06T11:30:09.004Z,16.43
2018-12-06T11:32:39.087Z,19.20
2018-12-06T11:35:09.149Z,17.07
2018-12-06T11:37:39.216Z,16.67
2018-12-06T11:40:09.085Z,16.47
2018-12-06T11:42:39.417Z,17.77
2018-12-06T11:45:09.486Z,16.03
2018-12-06T11:47:39.703Z,12.97
2018-12-06T11:50:09.625Z,12.03
2018-12-06T11:52:39.787Z,14.47
2018-12-06T11:55:09.702Z,10.70
2018-12-06T11:57:39.817Z,13.03
2018-12-06T12:00:11.442Z,12.57
2018-12-06T12:02:41.557Z,13.03
2018-12-06T12:05:11.793Z,16.50
2018-12-06T12:07:41.907Z,14.30
2018-12-06T12:10:11.806Z,12.83
2018-12-06T12:12:41.844Z,18.23
2018-12-06T12:15:14.045Z,22.17
2018-12-06T12:17:44.078Z,17.07
2018-12-06T12:20:14.099Z,13.30
2018-12-06T12:22:43.988Z,11.00
2018-12-06T12:25:13.930Z,9.07
2018-12-06T12:27:43.976Z,7.67
2018-12-06T12:30:14.040Z,5.83
2018-12-06T12:32:43.869Z,6.37
2018-12-06T12:35:13.758Z,5.20
2018-12-06T12:37:43.713Z,4.77
2018-12-06T12:40:13.790Z,3.77
2018-12-06T12:42:44.056Z,10.97
2018-12-06T12:45:14.154Z,11.20
2018-12-06T12:47:44.190Z,11.20
2018-12-06T12:50:14.186Z,10.53
2018-12-06T12:52:44.122Z,10.77
2018-12-06T12:55:14.106Z,11.23
2018-12-06T12:57:44.088Z,9.67
2018-12-06T13:00:13.669Z,11.63
2018-12-06T13:02:43.765Z,10.23
2018-12-06T13:05:13.869Z,9.90
2018-12-06T13:07:50.049Z,10.47
2018-12-06T13:10:20.078Z,10.67
2018-12-06T13:12:50.297Z,10.03
2018-12-06T13:15:20.339Z,10.30
2018-12-06T13:17:50.336Z,31.73
2018-12-06T13:20:20.377Z,29.90
2018-12-06T13:22:50.461Z,24.67
2018-12-06T13:25:20.604Z,22.70
2018-12-06T13:27:50.654Z,21.67
2018-12-06T13:30:21.856Z,20.13
2018-12-06T13:32:51.984Z,18.17
2018-12-06T13:35:21.985Z,18.90
2018-12-06T13:37:51.934Z,17.93
2018-12-06T13:40:21.880Z,17.47
2018-12-06T13:42:51.994Z,17.27
2018-12-06T13:45:21.876Z,17.37
2018-12-06T13:47:51.716Z,20.83
2018-12-06T13:50:21.737Z,21.60
2018-12-06T13:52:51.861Z,21.37
2018-12-06T13:55:21.757Z,22.17
2018-12-06T13:57:51.878Z,20.00
2018-12-06T14:00:21.927Z,20.60
2018-12-06T14:02:52.540Z,20.03
2018-12-06T14:05:22.762Z,19.83
2018-12-06T14:07:53.446Z,19.97
2018-12-06T14:10:23.520Z,20.17
2018-12-06T14:12:53.588Z,25.13
2018-12-06T14:15:23.582Z,22.80
2018-12-06T14:17:53.415Z,21.83
2018-12-06T14:20:23.490Z,22.67
2018-12-06T14:22:53.551Z,21.30
2018-12-06T14:25:23.538Z,20.13
2018-12-06T14:27:53.678Z,20.03
2018-12-06T14:30:23.644Z,21.52
2018-12-06T14:32:53.861Z,19.87
2018-12-06T14:35:23.930Z,19.80
2018-12-06T14:37:53.851Z,17.80
2018-12-06T14:40:26.701Z,18.70
2018-12-06T14:42:56.825Z,18.80
2018-12-06T14:45:27.043Z,18.63
2018-12-06T14:47:57.175Z,18.43
2018-12-06T14:50:27.179Z,17.03
2018-12-06T14:52:57.171Z,16.90
2018-12-06T14:55:27.058Z,16.30
2018-12-06T14:57:58.388Z,15.83
2018-12-06T15:00:28.588Z,15.83
2018-12-06T15:02:58.868Z,16.17
2018-12-06T15:05:28.883Z,14.97
2018-12-06T15:07:58.811Z,14.03
2018-12-06T15:10:28.912Z,13.60
2018-12-06T15:12:59.582Z,14.10
2018-12-06T15:15:29.637Z,13.83
2018-12-06T15:17:59.244Z,12.30
2018-12-06T15:20:29.052Z,12.67
2018-12-06T15:22:58.472Z,12.07
2018-12-06T15:25:28.568Z,11.53
2018-12-06T15:27:57.982Z,11.60
2018-12-06T15:30:27.497Z,11.23
2018-12-06T15:32:57.032Z,11.17
2018-12-06T15:35:26.470Z,11.13
2018-12-06T15:37:55.784Z,10.60
2018-12-06T15:40:25.192Z,10.40
2018-12-06T15:42:54.559Z,10.00
2018-12-06T15:45:23.974Z,9.33
2018-12-06T15:47:53.372Z,10.50
2018-12-06T15:50:22.878Z,9.53
2018-12-06T15:52:53.154Z,9.63
2018-12-06T15:55:22.675Z,9.03
2018-12-06T15:57:51.960Z,8.60
2018-12-06T16:00:21.413Z,9.07
2018-12-06T16:02:50.787Z,8.37
2018-12-06T16:05:20.349Z,9.20
2018-12-06T16:07:50.141Z,8.40
2018-12-06T16:10:19.668Z,8.63
2018-12-06T16:12:49.097Z,8.70
2018-12-06T16:15:18.775Z,8.87
2018-12-06T16:17:48.336Z,8.60
2018-12-06T16:20:17.860Z,7.93
2018-12-06T16:22:47.343Z,7.97
2018-12-06T16:25:16.935Z,7.30
2018-12-06T16:27:46.442Z,7.90
2018-12-06T16:30:16.098Z,7.53
2018-12-06T16:32:45.777Z,8.17
2018-12-06T16:35:15.397Z,5.37
2018-12-06T16:37:44.984Z,6.10
2018-12-06T16:40:14.537Z,6.53
2018-12-06T16:42:44.985Z,5.97
2018-12-06T16:45:14.482Z,6.40
2018-12-06T16:47:43.892Z,6.23
2018-12-06T16:50:13.661Z,6.90
2018-12-06T16:52:43.017Z,7.07
2018-12-06T16:55:12.489Z,5.97
2018-12-06T16:57:41.863Z,6.00
2018-12-06T17:00:14.638Z,6.97
2018-12-06T17:02:44.896Z,6.67
2018-12-06T17:05:14.782Z,7.47
2018-12-06T17:07:44.523Z,7.37
2018-12-06T17:10:14.541Z,7.00
2018-12-06T17:12:44.187Z,6.97
2018-12-06T17:15:13.698Z,6.90
2018-12-06T17:17:43.228Z,7.00
2018-12-06T17:20:13.081Z,7.67
2018-12-06T17:22:42.906Z,8.13
2018-12-06T17:25:12.368Z,8.20
2018-12-06T17:27:43.157Z,7.73
2018-12-06T17:30:13.816Z,6.93
2018-12-06T17:32:43.761Z,9.80
2018-12-06T17:35:13.499Z,8.45
2018-12-06T17:37:43.649Z,8.70
2018-12-06T17:40:13.121Z,9.00
2018-12-06T17:42:42.799Z,8.10
2018-12-06T17:45:12.438Z,8.93
2018-12-06T17:47:42.093Z,9.83
2018-12-06T17:50:12.082Z,9.23
2018-12-06T17:52:41.740Z,8.77
2018-12-06T17:55:12.071Z,10.13
2018-12-06T17:57:42.244Z,9.70
2018-12-06T18:00:12.692Z,9.67
2018-12-06T18:02:42.764Z,9.53
2018-12-06T18:05:12.682Z,10.30
2018-12-06T18:07:42.805Z,9.27
2018-12-06T18:10:12.940Z,10.17
2018-12-06T18:12:42.691Z,11.23
2018-12-06T18:15:12.080Z,12.77
2018-12-06T18:17:43.900Z,12.30
2018-12-06T18:20:13.362Z,13.03
2018-12-06T18:22:43.087Z,13.33
2018-12-06T18:25:12.536Z,13.40
2018-12-06T18:27:42.462Z,12.87
2018-12-06T18:30:13.075Z,13.07
2018-12-06T18:32:43.277Z,12.97
2018-12-06T18:35:12.889Z,13.37
2018-12-06T18:37:42.502Z,12.80
2018-12-06T18:40:12.130Z,14.30
2018-12-06T18:42:43.044Z,14.77
2018-12-06T18:45:12.812Z,13.50
2018-12-06T18:47:42.780Z,13.43
2018-12-06T18:50:12.561Z,10.13
2018-12-06T18:52:42.033Z,11.33
2018-12-06T18:55:11.852Z,11.90
2018-12-06T18:57:41.717Z,11.20
2018-12-06T19:00:12.044Z,10.97
2018-12-06T19:02:42.511Z,11.90
2018-12-06T19:05:12.072Z,11.00
2018-12-06T19:07:41.832Z,10.43
2018-12-06T19:10:11.504Z,11.00
2018-12-06T19:12:41.440Z,9.57
2018-12-06T19:15:11.197Z,9.47
2018-12-06T19:17:40.717Z,9.63
2018-12-06T19:20:10.715Z,10.00
2018-12-06T19:22:40.323Z,8.77
2018-12-06T19:25:10.447Z,9.43
2018-12-06T19:27:39.781Z,9.53
2018-12-06T19:30:11.710Z,9.17
2018-12-06T19:32:41.409Z,9.17
2018-12-06T19:35:11.442Z,8.13
2018-12-06T19:37:43.196Z,9.87
2018-12-06T19:40:12.660Z,9.10
2018-12-06T19:42:43.506Z,9.10
2018-12-06T19:45:13.590Z,8.80
2018-12-06T19:47:44.000Z,7.40
2018-12-06T19:50:13.552Z,6.27
2018-12-06T19:52:43.144Z,7.73
2018-12-06T19:55:13.608Z,7.00
2018-12-06T19:57:43.782Z,6.20
2018-12-06T20:00:13.488Z,6.67
2018-12-06T20:02:43.375Z,16.17
2018-12-06T20:05:13.740Z,31.93
2018-12-06T20:07:44.602Z,27.10
2018-12-06T20:10:14.591Z,29.50
2018-12-06T20:12:44.660Z,27.27
2018-12-06T20:15:16.706Z,25.40
2018-12-06T20:17:46.686Z,29.53
2018-12-06T20:20:23.360Z,26.40
2018-12-06T20:22:49.805Z,26.90
2018-12-06T20:25:19.775Z,23.07
2018-12-06T20:27:50.581Z,21.07
2018-12-06T20:30:21.813Z,21.43
2018-12-06T20:32:52.535Z,23.10
2018-12-06T20:35:22.506Z,19.70
2018-12-06T20:37:52.444Z,19.03
2018-12-06T20:40:21.767Z,24.00
2018-12-06T20:42:51.236Z,25.17
2018-12-06T20:45:20.747Z,22.13
2018-12-06T20:47:50.600Z,22.77
2018-12-06T20:50:20.166Z,20.10
2018-12-06T20:52:49.670Z,23.03
2018-12-06T20:55:19.135Z,18.80
2018-12-06T20:57:50.035Z,13.77
2018-12-06T21:00:20.677Z,19.27
2018-12-06T21:02:50.564Z,23.10
2018-12-06T21:05:19.997Z,18.17
2018-12-06T21:07:49.675Z,16.87
2018-12-06T21:10:19.395Z,29.37
2018-12-06T21:12:49.191Z,24.33
2018-12-06T21:15:19.462Z,18.93
2018-12-06T21:17:49.398Z,21.23
2018-12-06T21:20:19.129Z,20.50
2018-12-06T21:22:49.159Z,17.93
2018-12-06T21:25:19.094Z,18.87
2018-12-06T21:27:50.641Z,17.77
2018-12-06T21:30:22.045Z,17.83
2018-12-06T21:32:51.655Z,16.57
2018-12-06T21:35:23.007Z,20.10
2018-12-06T21:37:53.897Z,16.03
2018-12-06T21:40:24.866Z,18.00
2018-12-06T21:42:54.430Z,19.30
2018-12-06T21:45:24.181Z,20.37
2018-12-06T21:47:54.117Z,19.90
2018-12-06T21:50:25.847Z,20.80
2018-12-06T21:52:55.355Z,18.53
2018-12-06T21:55:27.240Z,23.27
2018-12-06T21:57:57.344Z,22.13
2018-12-06T22:00:28.987Z,28.23
2018-12-06T22:02:58.633Z,25.33
2018-12-06T22:05:31.410Z,24.83
2018-12-06T22:08:00.955Z,28.17
2018-12-06T22:10:30.468Z,21.23
2018-12-06T22:12:59.935Z,25.73
2018-12-06T22:15:29.678Z,27.77
2018-12-06T22:17:59.258Z,20.97
2018-12-06T22:20:28.640Z,27.30
2018-12-06T22:23:01.205Z,29.87
2018-12-06T22:25:29.875Z,19.30
2018-12-06T22:27:59.515Z,24.63
2018-12-06T22:30:28.970Z,25.53
2018-12-06T22:32:58.495Z,25.13
2018-12-06T22:35:28.014Z,22.13
2018-12-06T22:37:58.751Z,22.90
2018-12-06T22:40:28.277Z,26.03
2018-12-06T22:42:57.807Z,31.10
2018-12-06T22:45:59.478Z,26.10
2018-12-06T22:48:31.877Z,27.47
2018-12-06T22:51:01.500Z,31.87
2018-12-06T22:53:32.403Z,28.73
2018-12-06T22:56:01.695Z,25.77
2018-12-06T22:58:33.524Z,21.13
2018-12-06T23:01:03.058Z,28.97
2018-12-06T23:03:34.468Z,22.20
2018-12-06T23:06:04.004Z,23.87
2018-12-06T23:08:33.585Z,26.77
2018-12-06T23:11:02.982Z,22.67
2018-12-06T23:13:32.274Z,26.97
2018-12-06T23:16:01.829Z,22.33
2018-12-06T23:18:31.429Z,29.40
2018-12-06T23:21:00.885Z,29.67
2018-12-06T23:23:30.180Z,27.20
2018-12-06T23:25:59.586Z,28.33
2018-12-06T23:28:28.993Z,24.83
2018-12-06T23:30:59.679Z,21.20
2018-12-06T23:33:32.152Z,25.70
2018-12-06T23:36:00.334Z,28.27
2018-12-06T23:38:29.832Z,37.13
2018-12-06T23:41:00.562Z,36.73
2018-12-06T23:43:31.620Z,30.63
2018-12-06T23:46:02.253Z,25.50
2018-12-06T23:48:31.669Z,37.57
2018-12-06T23:51:12.207Z,35.67
2018-12-06T23:53:41.876Z,32.93
2018-12-06T23:56:11.803Z,36.73
2018-12-06T23:58:41.200Z,39.00
